Time,TemperatureF,DewpointF,PressureIn,WindDirection,WindDirectionDegrees,WindSpeedMPH,WindSpeedGustMPH,Humidity,HourlyPrecipIn,Conditions,Clouds,dailyrainin,SoftwareType,DateUTC
2013-04-12 00:04:00,69.1,62.7,28.58,WSW,248,0.9,1.3,80,0.41,,---,0.00,VWS V14.00,2013-04-12 04:04:00,
2013-04-12 00:07:00,68.9,62.5,28.58,NW,315,1.3,2.2,80,0.45,,---,0.04,VWS V14.00,2013-04-12 04:07:00,
2013-04-12 00:10:00,68.9,62.5,28.58,NE,45,1.3,2.2,80,0.50,,---,0.09,VWS V14.00,2013-04-12 04:10:00,
2013-04-12 00:16:00,68.5,62.1,28.55,NW,315,3.6,4.0,80,0.54,,---,0.13,VWS V14.00,2013-04-12 04:16:00,
2013-04-12 00:22:00,68.4,62.0,28.55,ENE,68,0.0,4.0,80,0.62,,---,0.21,VWS V14.00,2013-04-12 04:22:00,
2013-04-12 00:28:00,68.2,61.8,28.55,West,270,0.0,4.0,80,0.62,,---,0.21,VWS V14.00,2013-04-12 04:28:00,
2013-04-12 00:34:00,68.0,62.0,28.55,WNW,292,3.4,4.0,81,0.74,,---,0.33,VWS V14.00,2013-04-12 04:34:00,
2013-04-12 00:40:00,67.8,62.1,28.55,SSW,202,2.0,4.0,82,0.91,,---,0.50,VWS V14.00,2013-04-12 04:40:00,
2013-04-12 00:49:00,67.6,62.0,28.58,West,270,0.0,4.0,82,0.95,,---,0.54,VWS V14.00,2013-04-12 04:49:00,
2013-04-12 00:55:00,67.5,61.8,28.58,SSE,158,2.5,4.0,82,0.95,,---,0.54,VWS V14.00,2013-04-12 04:55:00,
2013-04-12 01:01:00,67.3,61.6,28.58,WSW,248,0.0,0.0,82,0.00,,---,0.58,VWS V14.00,2013-04-12 05:01:00,
2013-04-12 01:07:00,67.3,61.6,28.58,WSW,248,0.0,1.3,82,0.05,,---,0.63,VWS V14.00,2013-04-12 05:07:00,
2013-04-12 01:13:00,67.1,61.4,28.61,WSW,248,2.5,2.5,82,0.05,,---,0.63,VWS V14.00,2013-04-12 05:13:00,
2013-04-12 01:19:00,66.9,61.6,28.61,SE,135,1.6,2.5,83,0.05,,---,0.63,VWS V14.00,2013-04-12 05:19:00,
2013-04-12 01:25:00,66.9,61.6,28.61,East,90,2.0,2.5,83,0.09,,---,0.67,VWS V14.00,2013-04-12 05:25:00,
2013-04-12 01:31:00,66.7,61.4,28.58,South,180,2.0,2.9,83,0.09,,---,0.67,VWS V14.00,2013-04-12 05:31:00,
2013-04-12 01:37:00,66.7,61.4,28.58,SW,225,0.0,2.9,83,0.13,,---,0.71,VWS V14.00,2013-04-12 05:37:00,
2013-04-12 01:43:00,66.6,61.2,28.55,NNE,22,0.0,2.9,83,0.17,,---,0.75,VWS V14.00,2013-04-12 05:43:00,
2013-04-12 01:49:00,66.6,61.6,28.55,ESE,112,1.6,2.9,84,0.17,,---,0.75,VWS V14.00,2013-04-12 05:49:00,
2013-04-12 01:55:00,66.4,61.1,28.55,North,0,0.0,2.9,83,0.17,,---,0.75,VWS V14.00,2013-04-12 05:55:00,
2013-04-12 02:05:00,66.2,60.9,28.50,West,270,1.6,2.5,83,0.21,,---,0.79,VWS V14.00,2013-04-12 06:05:00,
2013-04-12 02:11:00,66.2,60.9,28.50,East,90,1.1,2.5,83,0.21,,---,0.79,VWS V14.00,2013-04-12 06:11:00,
2013-04-12 02:17:00,66.2,60.9,28.55,WNW,292,0.0,2.5,83,0.21,,---,0.79,VWS V14.00,2013-04-12 06:17:00,
2013-04-12 02:23:00,66.0,61.0,28.55,WNW,292,0.0,2.5,84,0.21,,---,0.79,VWS V14.00,2013-04-12 06:23:00,
2013-04-12 02:29:00,66.0,61.0,28.55,WSW,248,0.0,2.5,84,0.21,,---,0.79,VWS V14.00,2013-04-12 06:29:00,
2013-04-12 02:35:00,65.8,60.9,28.55,WSW,248,0.0,2.5,84,0.21,,---,0.79,VWS V14.00,2013-04-12 06:35:00,
2013-04-12 02:44:00,65.8,61.2,28.55,South,180,1.6,2.5,85,0.21,,---,0.79,VWS V14.00,2013-04-12 06:44:00,
2013-04-12 02:50:00,65.8,61.2,28.55,West,270,1.3,2.9,85,0.21,,---,0.79,VWS V14.00,2013-04-12 06:50:00,
2013-04-12 02:59:00,65.7,60.7,28.55,West,270,0.0,2.9,84,0.21,,---,0.79,VWS V14.00,2013-04-12 06:59:00,
2013-04-12 03:05:00,65.7,61.0,28.55,West,270,0.0,0.0,85,0.00,,---,0.79,VWS V14.00,2013-04-12 07:05:00,
2013-04-12 03:11:00,65.7,61.0,28.55,West,270,0.0,0.0,85,0.00,,---,0.79,VWS V14.00,2013-04-12 07:11:00,
2013-04-12 03:17:00,65.7,61.0,28.52,West,270,0.0,0.0,85,0.00,,---,0.79,VWS V14.00,2013-04-12 07:17:00,
2013-04-12 03:23:00,65.7,61.0,28.52,West,270,0.0,1.1,85,0.00,,---,0.79,VWS V14.00,2013-04-12 07:23:00,
2013-04-12 03:29:00,65.7,61.0,28.52,SW,225,0.0,1.3,85,0.00,,---,0.79,VWS V14.00,2013-04-12 07:29:00,
2013-04-12 03:35:00,65.5,60.9,28.52,SSW,202,2.0,2.0,85,0.00,,---,0.79,VWS V14.00,2013-04-12 07:35:00,
2013-04-12 03:41:00,65.5,60.9,28.52,SSE,158,2.0,2.5,85,0.00,,---,0.79,VWS V14.00,2013-04-12 07:41:00,
2013-04-12 03:47:00,65.5,60.9,28.52,South,180,0.0,2.5,85,0.00,,---,0.79,VWS V14.00,2013-04-12 07:47:00,
2013-04-12 03:53:00,65.5,60.9,28.52,South,180,1.1,2.5,85,0.00,,---,0.79,VWS V14.00,2013-04-12 07:53:00,
2013-04-12 03:59:00,65.5,60.9,28.50,SE,135,1.3,2.7,85,0.00,,---,0.79,VWS V14.00,2013-04-12 07:59:00,
2013-04-12 04:05:00,65.3,60.7,28.50,SSE,158,0.0,2.7,85,0.00,,---,0.79,VWS V14.00,2013-04-12 08:05:00,
2013-04-12 04:12:00,65.3,60.7,28.50,SW,225,0.0,2.7,85,0.00,,---,0.79,VWS V14.00,2013-04-12 08:12:00,
2013-04-12 04:18:00,65.3,60.7,28.50,SSW,202,1.1,2.7,85,0.00,,---,0.79,VWS V14.00,2013-04-12 08:18:00,
2013-04-12 04:24:00,65.1,60.5,28.50,South,180,2.5,2.7,85,0.00,,---,0.79,VWS V14.00,2013-04-12 08:24:00,
2013-04-12 04:30:00,65.1,60.5,28.50,SSW,202,0.0,2.9,85,0.00,,---,0.79,VWS V14.00,2013-04-12 08:30:00,
2013-04-12 04:39:00,65.1,60.8,28.50,South,180,0.0,2.9,86,0.00,,---,0.79,VWS V14.00,2013-04-12 08:39:00,
2013-04-12 04:45:00,65.1,60.8,28.50,SSW,202,0.0,3.1,86,0.00,,---,0.79,VWS V14.00,2013-04-12 08:45:00,
2013-04-12 04:51:00,65.1,60.8,28.50,SW,225,2.5,3.1,86,0.00,,---,0.79,VWS V14.00,2013-04-12 08:51:00,
2013-04-12 04:57:00,65.1,61.2,28.50,South,180,2.0,3.1,87,0.00,,---,0.79,VWS V14.00,2013-04-12 08:57:00,
2013-04-12 05:03:00,65.1,61.2,28.50,West,270,0.0,1.6,87,0.00,,---,0.79,VWS V14.00,2013-04-12 09:03:00,
2013-04-12 05:09:00,65.1,61.2,28.50,West,270,1.1,2.2,87,0.00,,---,0.79,VWS V14.00,2013-04-12 09:09:00,
2013-04-12 05:15:00,65.1,61.2,28.50,SW,225,2.0,2.2,87,0.00,,---,0.79,VWS V14.00,2013-04-12 09:15:00,
2013-04-12 05:21:00,65.1,61.2,28.50,NE,45,6.3,6.3,87,0.00,,---,0.79,VWS V14.00,2013-04-12 09:21:00,
2013-04-12 05:27:00,65.1,61.5,28.50,South,180,2.5,6.3,88,0.00,,---,0.79,VWS V14.00,2013-04-12 09:27:00,
2013-04-12 05:33:00,65.1,61.5,28.50,NNW,338,0.9,6.3,88,0.00,,---,0.79,VWS V14.00,2013-04-12 09:33:00,
2013-04-12 05:39:00,65.1,61.5,28.50,SSW,202,1.1,6.3,88,0.00,,---,0.79,VWS V14.00,2013-04-12 09:39:00,
2013-04-12 05:45:00,65.1,61.5,28.50,SW,225,0.0,6.3,88,0.00,,---,0.79,VWS V14.00,2013-04-12 09:45:00,
2013-04-12 05:51:00,65.1,61.8,28.50,West,270,0.0,6.3,89,0.00,,---,0.79,VWS V14.00,2013-04-12 09:51:00,
2013-04-12 05:57:00,65.3,62.0,28.50,WSW,248,0.0,6.3,89,0.00,,---,0.79,VWS V14.00,2013-04-12 09:57:00,
2013-04-12 06:03:00,65.3,62.0,28.50,South,180,2.2,2.2,89,0.00,,---,0.79,VWS V14.00,2013-04-12 10:03:00,
2013-04-12 06:10:00,65.3,62.0,28.50,SSE,158,1.1,3.1,89,0.00,,---,0.79,VWS V14.00,2013-04-12 10:10:00,
2013-04-12 06:16:00,65.3,62.0,28.50,WNW,292,0.0,4.7,89,0.00,,---,0.79,VWS V14.00,2013-04-12 10:16:00,
2013-04-12 06:22:00,65.3,62.0,28.50,WNW,292,2.7,4.7,89,0.00,,---,0.79,VWS V14.00,2013-04-12 10:22:00,
2013-04-12 06:28:00,65.3,62.3,28.52,SSE,158,0.9,4.7,90,0.00,,---,0.79,VWS V14.00,2013-04-12 10:28:00,
2013-04-12 06:34:00,65.3,62.3,28.52,South,180,2.9,4.7,90,0.00,,---,0.79,VWS V14.00,2013-04-12 10:34:00,
2013-04-12 06:40:00,65.3,62.3,28.52,WNW,292,0.0,4.7,90,0.00,,---,0.79,VWS V14.00,2013-04-12 10:40:00,
2013-04-12 06:49:00,65.5,62.5,28.52,SE,135,1.1,4.7,90,0.00,,---,0.79,VWS V14.00,2013-04-12 10:49:00,
2013-04-12 06:55:00,65.5,62.5,28.52,WSW,248,0.0,4.7,90,0.00,,---,0.79,VWS V14.00,2013-04-12 10:55:00,
2013-04-12 07:01:00,65.5,62.5,28.52,WSW,248,0.0,1.3,90,0.00,,---,0.79,VWS V14.00,2013-04-12 11:01:00,
2013-04-12 07:07:00,65.5,62.5,28.52,WSW,248,0.0,1.3,90,0.00,,---,0.79,VWS V14.00,2013-04-12 11:07:00,
2013-04-12 07:13:00,65.5,62.5,28.52,NW,315,2.0,3.8,90,0.00,,---,0.79,VWS V14.00,2013-04-12 11:13:00,
2013-04-12 07:19:00,65.5,62.5,28.52,WSW,248,0.0,3.8,90,0.00,,---,0.79,VWS V14.00,2013-04-12 11:19:00,
2013-04-12 07:25:00,65.5,62.5,28.52,West,270,0.0,3.8,90,0.00,,---,0.79,VWS V14.00,2013-04-12 11:25:00,
2013-04-12 07:31:00,65.5,62.5,28.52,ESE,112,0.0,3.8,90,0.00,,---,0.79,VWS V14.00,2013-04-12 11:31:00,
2013-04-12 07:38:00,65.5,62.5,28.52,West,270,0.0,3.8,90,0.00,,---,0.79,VWS V14.00,2013-04-12 11:38:00,
2013-04-12 07:44:00,65.5,62.5,28.52,West,270,0.0,3.8,90,0.00,,---,0.79,VWS V14.00,2013-04-12 11:44:00,
2013-04-12 07:50:00,65.7,62.7,28.52,West,270,2.5,3.8,90,0.00,,---,0.79,VWS V14.00,2013-04-12 11:50:00,
2013-04-12 07:56:00,65.8,63.1,28.52,NW,315,0.0,3.8,91,0.00,,---,0.79,VWS V14.00,2013-04-12 11:56:00,
2013-04-12 08:02:00,66.2,63.5,28.55,West,270,0.0,2.0,91,0.00,,---,0.79,VWS V14.00,2013-04-12 12:02:00,
2013-04-12 08:08:00,66.6,63.9,28.55,West,270,0.0,2.0,91,0.00,,---,0.79,VWS V14.00,2013-04-12 12:08:00,
2013-04-12 08:14:00,67.1,64.1,28.55,South,180,2.0,2.0,90,0.00,,---,0.79,VWS V14.00,2013-04-12 12:14:00,
2013-04-12 08:20:00,67.3,64.2,28.55,SSE,158,1.1,2.7,90,0.00,,---,0.79,VWS V14.00,2013-04-12 12:20:00,
2013-04-12 08:26:00,67.6,64.0,28.55,South,180,0.9,3.4,88,0.00,,---,0.79,VWS V14.00,2013-04-12 12:26:00,
2013-04-12 08:32:00,68.5,64.5,28.55,SSE,158,2.5,3.4,87,0.00,,---,0.79,VWS V14.00,2013-04-12 12:32:00,
2013-04-12 08:38:00,68.9,64.6,28.55,ESE,112,0.0,3.4,86,0.00,,---,0.79,VWS V14.00,2013-04-12 12:38:00,
2013-04-12 08:44:00,69.8,64.8,28.55,SSW,202,0.9,3.4,84,0.00,,---,0.79,VWS V14.00,2013-04-12 12:44:00,
2013-04-12 08:50:00,70.3,64.9,28.55,South,180,2.7,3.4,83,0.00,,---,0.79,VWS V14.00,2013-04-12 12:50:00,
2013-04-12 08:59:00,71.2,65.1,28.55,NE,45,3.1,3.4,81,0.00,,---,0.79,VWS V14.00,2013-04-12 12:59:00,
2013-04-12 09:05:00,71.6,64.8,28.55,SW,225,0.0,2.7,79,0.00,,---,0.79,VWS V14.00,2013-04-12 13:05:00,
2013-04-12 09:11:00,71.8,64.9,28.55,WSW,248,3.8,3.8,79,0.00,,---,0.79,VWS V14.00,2013-04-12 13:11:00,
2013-04-12 09:17:00,72.0,64.7,28.55,North,0,1.6,3.8,78,0.00,,---,0.79,VWS V14.00,2013-04-12 13:17:00,
2013-04-12 09:23:00,72.1,64.9,28.55,SE,135,1.6,3.8,78,0.00,,---,0.79,VWS V14.00,2013-04-12 13:23:00,
2013-04-12 09:30:00,72.5,65.3,28.55,NW,315,1.3,3.8,78,0.00,,---,0.79,VWS V14.00,2013-04-12 13:30:00,
2013-04-12 09:36:00,72.9,65.2,28.55,West,270,4.0,4.0,77,0.00,,---,0.79,VWS V14.00,2013-04-12 13:36:00,
2013-04-12 09:42:00,73.2,65.2,28.55,WSW,248,2.2,4.0,76,0.00,,---,0.79,VWS V14.00,2013-04-12 13:42:00,
2013-04-12 09:48:00,73.6,64.8,28.55,NW,315,2.9,10.3,74,0.00,,---,0.79,VWS V14.00,2013-04-12 13:48:00,
2013-04-12 09:54:00,73.8,63.8,28.55,WSW,248,1.6,10.3,71,0.00,,---,0.79,VWS V14.00,2013-04-12 13:54:00,
2013-04-12 10:00:00,73.9,63.5,28.55,West,270,1.6,10.3,70,0.00,,---,0.79,VWS V14.00,2013-04-12 14:00:00,
2013-04-12 10:06:00,74.3,63.9,28.55,North,0,3.6,6.3,70,0.00,,---,0.79,VWS V14.00,2013-04-12 14:06:00,
2013-04-12 10:12:00,74.5,64.1,28.55,West,270,0.9,6.3,70,0.00,,---,0.79,VWS V14.00,2013-04-12 14:12:00,
2013-04-12 10:18:00,74.7,63.4,28.55,NW,315,3.1,6.3,68,0.00,,---,0.79,VWS V14.00,2013-04-12 14:18:00,
2013-04-12 10:24:00,74.8,63.6,28.55,WNW,292,3.4,6.3,68,0.00,,---,0.79,VWS V14.00,2013-04-12 14:24:00,
2013-04-12 10:30:00,75.2,63.9,28.58,NE,45,1.3,6.3,68,0.00,,---,0.79,VWS V14.00,2013-04-12 14:30:00,
2013-04-12 10:36:00,75.2,63.5,28.58,ENE,68,2.7,6.3,67,0.00,,---,0.79,VWS V14.00,2013-04-12 14:36:00,
2013-04-12 10:42:00,75.4,63.7,28.58,NNW,338,3.8,6.3,67,0.00,,---,0.79,VWS V14.00,2013-04-12 14:42:00,
2013-04-12 10:49:00,75.6,63.4,28.58,West,270,4.9,7.8,66,0.00,,---,0.79,VWS V14.00,2013-04-12 14:49:00,
2013-04-12 10:55:00,75.6,63.4,28.58,SE,135,7.2,7.8,66,0.00,,---,0.79,VWS V14.00,2013-04-12 14:55:00,
2013-04-12 11:00:00,75.6,63.4,28.58,WSW,248,6.0,11.2,66,0.00,,---,0.79,VWS V14.00,2013-04-12 15:00:00,
2013-04-12 11:07:00,75.7,62.7,28.58,WSW,248,5.4,8.1,64,0.00,,---,0.79,VWS V14.00,2013-04-12 15:07:00,
2013-04-12 11:13:00,75.7,61.8,28.58,NW,315,2.2,8.1,62,0.00,,---,0.79,VWS V14.00,2013-04-12 15:13:00,
2013-04-12 11:19:00,75.7,61.8,28.58,NNW,338,5.4,8.1,62,0.00,,---,0.79,VWS V14.00,2013-04-12 15:19:00,
2013-04-12 11:25:00,75.9,62.0,28.58,West,270,3.6,8.1,62,0.00,,---,0.79,VWS V14.00,2013-04-12 15:25:00,
2013-04-12 11:31:00,76.1,61.2,28.58,West,270,1.6,8.1,60,0.00,,---,0.79,VWS V14.00,2013-04-12 15:31:00,
2013-04-12 11:37:00,76.3,61.4,28.58,SSE,158,2.5,8.1,60,0.00,,---,0.79,VWS V14.00,2013-04-12 15:37:00,
2013-04-12 11:43:00,76.1,60.8,28.58,South,180,4.9,8.7,59,0.00,,---,0.79,VWS V14.00,2013-04-12 15:43:00,
2013-04-12 11:49:00,76.1,61.2,28.58,WNW,292,2.0,8.7,60,0.00,,---,0.79,VWS V14.00,2013-04-12 15:49:00,
2013-04-12 11:55:00,76.5,61.6,28.58,West,270,1.3,8.7,60,0.00,,---,0.79,VWS V14.00,2013-04-12 15:55:00,
2013-04-12 12:01:00,76.5,61.1,28.58,SE,135,5.8,5.8,59,0.00,,---,0.79,VWS V14.00,2013-04-12 16:01:00,
2013-04-12 12:07:00,76.8,61.4,28.58,WNW,292,1.6,5.8,59,0.00,,---,0.79,VWS V14.00,2013-04-12 16:07:00,
2013-04-12 12:13:00,76.8,61.4,28.58,SSE,158,4.9,6.3,59,0.00,,---,0.79,VWS V14.00,2013-04-12 16:13:00,
2013-04-12 12:19:00,77.0,61.1,28.58,NW,315,5.4,6.3,58,0.00,,---,0.79,VWS V14.00,2013-04-12 16:19:00,
2013-04-12 12:25:00,77.2,61.3,28.58,NW,315,6.5,6.5,58,0.00,,---,0.79,VWS V14.00,2013-04-12 16:25:00,
2013-04-12 12:32:00,77.4,61.0,28.58,SW,225,3.6,6.5,57,0.00,,---,0.79,VWS V14.00,2013-04-12 16:32:00,
2013-04-12 12:38:00,77.4,61.0,28.58,West,270,3.6,6.5,57,0.00,,---,0.79,VWS V14.00,2013-04-12 16:38:00,
2013-04-12 12:44:00,77.5,61.1,28.58,West,270,4.9,6.5,57,0.00,,---,0.79,VWS V14.00,2013-04-12 16:44:00,
2013-04-12 12:50:00,77.7,61.3,28.58,SSE,158,3.6,6.5,57,0.00,,---,0.79,VWS V14.00,2013-04-12 16:50:00,
2013-04-12 12:56:00,77.5,60.6,28.58,NE,45,2.2,6.5,56,0.00,,---,0.79,VWS V14.00,2013-04-12 16:56:00,
2013-04-12 13:02:00,77.5,60.6,28.61,West,270,5.4,6.7,56,0.00,,---,0.79,VWS V14.00,2013-04-12 17:02:00,
2013-04-12 13:08:00,77.5,60.6,28.61,WSW,248,3.4,6.7,56,0.00,,---,0.79,VWS V14.00,2013-04-12 17:08:00,
2013-04-12 13:14:00,77.5,60.6,28.61,ESE,112,2.7,6.7,56,0.00,,---,0.79,VWS V14.00,2013-04-12 17:14:00,
2013-04-12 13:20:00,77.5,60.6,28.61,NW,315,3.1,7.4,56,0.00,,---,0.79,VWS V14.00,2013-04-12 17:20:00,
2013-04-12 13:26:00,77.4,60.5,28.61,NNW,338,2.7,7.8,56,0.00,,---,0.79,VWS V14.00,2013-04-12 17:26:00,
2013-04-12 13:32:00,77.4,60.0,28.61,WSW,248,2.0,7.8,55,0.00,,---,0.79,VWS V14.00,2013-04-12 17:32:00,
2013-04-12 13:38:00,77.4,60.0,28.61,ENE,68,2.0,7.8,55,0.00,,---,0.79,VWS V14.00,2013-04-12 17:38:00,
2013-04-12 13:44:00,77.4,60.0,28.61,NNW,338,4.0,8.5,55,0.00,,---,0.79,VWS V14.00,2013-04-12 17:44:00,
2013-04-12 13:50:00,77.4,60.0,28.61,West,270,5.4,9.0,55,0.00,,---,0.79,VWS V14.00,2013-04-12 17:50:00,
2013-04-12 13:57:00,77.4,60.0,28.61,NW,315,4.0,10.1,55,0.00,,---,0.79,VWS V14.00,2013-04-12 17:57:00,
2013-04-12 14:16:00,77.4,60.0,28.61,SSE,158,5.8,8.1,55,0.00,,---,0.79,VWS V14.00,2013-04-12 18:16:00,
2013-04-12 14:25:00,77.4,60.0,28.61,SW,225,1.6,13.2,55,0.00,,---,0.79,VWS V14.00,2013-04-12 18:25:00,
2013-04-12 15:28:00,77.0,58.6,28.58,NNW,338,3.6,9.6,53,0.00,,---,0.79,VWS V14.00,2013-04-12 19:28:00,
2013-04-12 15:31:00,77.0,58.6,28.58,West,270,4.0,9.6,53,0.00,,---,0.79,VWS V14.00,2013-04-12 19:31:00,
2013-04-12 15:37:00,76.8,58.4,28.58,ESE,112,10.1,10.1,53,0.00,,---,0.79,VWS V14.00,2013-04-12 19:37:00,
2013-04-12 15:43:00,76.6,58.2,28.58,West,270,5.6,10.1,53,0.00,,---,0.79,VWS V14.00,2013-04-12 19:43:00,
2013-04-12 15:49:00,76.6,58.2,28.58,West,270,4.7,10.1,53,0.00,,---,0.79,VWS V14.00,2013-04-12 19:49:00,
2013-04-12 15:55:00,76.6,56.6,28.58,South,180,4.9,10.1,50,0.00,,---,0.79,VWS V14.00,2013-04-12 19:55:00,
2013-04-12 16:01:00,76.5,56.5,28.58,ESE,112,7.4,7.4,50,0.00,,---,0.79,VWS V14.00,2013-04-12 20:01:00,
2013-04-12 16:07:00,76.3,56.3,28.58,West,270,2.9,7.4,50,0.00,,---,0.79,VWS V14.00,2013-04-12 20:07:00,
2013-04-12 16:13:00,76.3,56.3,28.58,NNE,22,5.6,7.4,50,0.00,,---,0.79,VWS V14.00,2013-04-12 20:13:00,
2013-04-12 16:19:00,76.1,56.1,28.58,West,270,3.4,14.5,50,0.00,,---,0.79,VWS V14.00,2013-04-12 20:19:00,
2013-04-12 16:25:00,75.9,56.0,28.58,WSW,248,4.0,14.5,50,0.00,,---,0.79,VWS V14.00,2013-04-12 20:25:00,
2013-04-12 16:31:00,75.9,56.0,28.58,WSW,248,2.0,14.5,50,0.00,,---,0.79,VWS V14.00,2013-04-12 20:31:00,
2013-04-12 16:37:00,75.7,55.8,28.58,SSE,158,2.5,14.5,50,0.00,,---,0.79,VWS V14.00,2013-04-12 20:37:00,
2013-04-12 16:43:00,75.7,55.8,28.58,West,270,3.8,14.5,50,0.00,,---,0.79,VWS V14.00,2013-04-12 20:43:00,
2013-04-12 16:49:00,75.6,55.6,28.58,SW,225,1.3,14.5,50,0.00,,---,0.79,VWS V14.00,2013-04-12 20:49:00,
2013-04-12 16:56:00,75.4,55.5,28.58,East,90,2.5,14.5,50,0.00,,---,0.79,VWS V14.00,2013-04-12 20:56:00,
2013-04-12 17:02:00,75.4,55.5,28.58,SW,225,2.2,3.6,50,0.00,,---,0.79,VWS V14.00,2013-04-12 21:02:00,
2013-04-12 17:08:00,75.2,55.3,28.58,North,0,4.0,10.7,50,0.00,,---,0.79,VWS V14.00,2013-04-12 21:08:00,
2013-04-12 17:14:00,75.0,55.7,28.58,SW,225,2.0,10.7,51,0.00,,---,0.79,VWS V14.00,2013-04-12 21:14:00,
2013-04-12 17:20:00,75.0,55.7,28.58,NW,315,2.5,10.7,51,0.00,,---,0.79,VWS V14.00,2013-04-12 21:20:00,
2013-04-12 17:26:00,74.8,55.5,28.58,ENE,68,2.9,10.7,51,0.00,,---,0.79,VWS V14.00,2013-04-12 21:26:00,
2013-04-12 17:35:00,74.7,55.3,28.58,West,270,6.9,10.7,51,0.00,,---,0.79,VWS V14.00,2013-04-12 21:35:00,
2013-04-12 17:44:00,74.5,55.2,28.58,SW,225,5.6,10.7,51,0.00,,---,0.79,VWS V14.00,2013-04-12 21:44:00,
2013-04-12 17:50:00,74.1,54.9,28.58,ESE,112,2.2,10.7,51,0.00,,---,0.79,VWS V14.00,2013-04-12 21:50:00,
2013-04-12 17:56:00,74.1,54.9,28.58,West,270,3.4,10.7,51,0.00,,---,0.79,VWS V14.00,2013-04-12 21:56:00,
2013-04-12 18:02:00,73.8,54.5,28.58,West,270,4.7,4.7,51,0.00,,---,0.79,VWS V14.00,2013-04-12 22:02:00,
2013-04-12 18:08:00,73.8,54.5,28.58,West,270,6.3,9.6,51,0.00,,---,0.79,VWS V14.00,2013-04-12 22:08:00,
2013-04-12 18:14:00,73.6,54.4,28.61,West,270,1.6,9.6,51,0.00,,---,0.79,VWS V14.00,2013-04-12 22:14:00,
2013-04-12 18:20:00,73.4,54.2,28.61,NNW,338,3.6,9.6,51,0.00,,---,0.79,VWS V14.00,2013-04-12 22:20:00,
2013-04-12 18:26:00,73.2,54.0,28.61,WSW,248,2.7,9.6,51,0.00,,---,0.79,VWS V14.00,2013-04-12 22:26:00,
2013-04-12 18:32:00,72.9,53.7,28.58,WNW,292,4.9,9.6,51,0.00,,---,0.79,VWS V14.00,2013-04-12 22:32:00,
2013-04-12 18:38:00,72.7,53.5,28.58,West,270,1.6,9.6,51,0.00,,---,0.79,VWS V14.00,2013-04-12 22:38:00,
2013-04-12 18:44:00,72.5,53.4,28.61,WSW,248,2.7,9.6,51,0.00,,---,0.79,VWS V14.00,2013-04-12 22:44:00,
2013-04-12 18:50:00,72.1,53.0,28.61,WNW,292,4.3,9.6,51,0.00,,---,0.79,VWS V14.00,2013-04-12 22:50:00,
2013-04-12 18:56:00,72.0,52.9,28.61,NNW,338,2.9,9.6,51,0.00,,---,0.79,VWS V14.00,2013-04-12 22:56:00,
2013-04-12 19:02:00,71.6,52.5,28.61,WNW,292,2.9,3.1,51,0.00,,---,0.79,VWS V14.00,2013-04-12 23:02:00,
2013-04-12 19:08:00,71.4,52.9,28.61,NW,315,4.0,4.0,52,0.00,,---,0.79,VWS V14.00,2013-04-12 23:08:00,
2013-04-12 19:14:00,71.1,52.6,28.61,NW,315,6.5,6.5,52,0.00,,---,0.79,VWS V14.00,2013-04-12 23:14:00,
2013-04-12 19:20:00,70.9,52.4,28.61,West,270,2.9,10.5,52,0.00,,---,0.79,VWS V14.00,2013-04-12 23:20:00,
2013-04-12 19:27:00,70.9,52.4,28.61,West,270,1.3,10.5,52,0.00,,---,0.79,VWS V14.00,2013-04-12 23:27:00,
2013-04-12 19:33:00,70.5,52.1,28.61,West,270,3.1,10.5,52,0.00,,---,0.79,VWS V14.00,2013-04-12 23:33:00,
2013-04-12 19:39:00,70.3,51.9,28.61,NW,315,2.5,10.5,52,0.00,,---,0.79,VWS V14.00,2013-04-12 23:39:00,
2013-04-12 19:45:00,70.0,51.6,28.61,NE,45,2.7,10.5,52,0.00,,---,0.79,VWS V14.00,2013-04-12 23:45:00,
2013-04-12 19:51:00,69.6,51.2,28.61,WNW,292,0.0,10.5,52,0.00,,---,0.79,VWS V14.00,2013-04-12 23:51:00,
2013-04-12 19:57:00,69.4,51.1,28.61,West,270,2.0,10.5,52,0.00,,---,0.79,VWS V14.00,2013-04-12 23:57:00,
2013-04-12 20:03:00,69.1,50.7,28.61,North,0,1.3,1.3,52,0.00,,---,0.79,VWS V14.00,2013-04-13 00:03:00,
2013-04-12 20:09:00,68.9,50.6,28.61,SSE,158,2.2,3.6,52,0.00,,---,0.79,VWS V14.00,2013-04-13 00:09:00,
2013-04-12 20:15:00,68.5,50.2,28.64,West,270,0.0,4.0,52,0.00,,---,0.79,VWS V14.00,2013-04-13 00:15:00,
2013-04-12 20:21:00,68.2,49.9,28.64,WNW,292,2.5,4.0,52,0.00,,---,0.79,VWS V14.00,2013-04-13 00:21:00,
2013-04-12 20:27:00,67.8,49.6,28.64,SW,225,0.9,5.8,52,0.00,,---,0.79,VWS V14.00,2013-04-13 00:27:00,
2013-04-12 20:33:00,67.6,49.4,28.64,South,180,1.6,5.8,52,0.00,,---,0.79,VWS V14.00,2013-04-13 00:33:00,
2013-04-12 20:39:00,67.5,49.2,28.64,WNW,292,2.7,5.8,52,0.00,,---,0.79,VWS V14.00,2013-04-13 00:39:00,
2013-04-12 20:45:00,67.1,48.9,28.67,West,270,1.1,5.8,52,0.00,,---,0.79,VWS V14.00,2013-04-13 00:45:00,
2013-04-12 20:51:00,66.9,48.7,28.67,NW,315,0.0,5.8,52,0.00,,---,0.79,VWS V14.00,2013-04-13 00:51:00,
2013-04-12 20:57:00,66.7,48.6,28.67,West,270,2.2,5.8,52,0.00,,---,0.79,VWS V14.00,2013-04-13 00:57:00,
2013-04-12 21:03:00,66.4,48.2,28.67,SE,135,2.5,2.5,52,0.00,,---,0.79,VWS V14.00,2013-04-13 01:03:00,
2013-04-12 21:09:00,66.4,48.2,28.67,West,270,0.9,2.5,52,0.00,,---,0.79,VWS V14.00,2013-04-13 01:09:00,
2013-04-12 21:15:00,66.0,48.4,28.67,West,270,0.0,2.5,53,0.00,,---,0.79,VWS V14.00,2013-04-13 01:15:00,
2013-04-12 21:21:00,65.7,48.1,28.67,WNW,292,2.5,3.8,53,0.00,,---,0.79,VWS V14.00,2013-04-13 01:21:00,
2013-04-12 21:27:00,65.5,47.9,28.67,West,270,6.0,6.0,53,0.00,,---,0.79,VWS V14.00,2013-04-13 01:27:00,
2013-04-12 21:33:00,65.3,47.8,28.67,South,180,1.1,6.0,53,0.00,,---,0.79,VWS V14.00,2013-04-13 01:33:00,
2013-04-12 21:39:00,65.1,47.6,28.67,WNW,292,3.1,6.0,53,0.00,,---,0.79,VWS V14.00,2013-04-13 01:39:00,
2013-04-12 21:45:00,64.8,47.2,28.67,WNW,292,3.1,6.0,53,0.00,,---,0.79,VWS V14.00,2013-04-13 01:45:00,
2013-04-12 21:51:00,64.8,47.2,28.67,West,270,1.6,6.0,53,0.00,,---,0.79,VWS V14.00,2013-04-13 01:51:00,
2013-04-12 21:57:00,64.4,46.9,28.70,South,180,0.0,6.0,53,0.00,,---,0.79,VWS V14.00,2013-04-13 01:57:00,
2013-04-12 22:03:00,64.2,46.8,28.70,NE,45,1.6,3.1,53,0.00,,---,0.79,VWS V14.00,2013-04-13 02:03:00,
2013-04-12 22:09:00,64.0,46.6,28.70,NNW,338,1.6,6.3,53,0.00,,---,0.79,VWS V14.00,2013-04-13 02:09:00,
2013-04-12 22:15:00,63.9,46.4,28.70,WNW,292,2.0,6.3,53,0.00,,---,0.79,VWS V14.00,2013-04-13 02:15:00,
2013-04-12 22:22:00,63.7,46.2,28.70,NE,45,2.7,6.3,53,0.00,,---,0.79,VWS V14.00,2013-04-13 02:22:00,
2013-04-12 22:28:00,63.5,46.1,28.70,WNW,292,2.9,6.3,53,0.00,,---,0.79,VWS V14.00,2013-04-13 02:28:00,
2013-04-12 22:34:00,63.3,45.9,28.70,NE,45,0.0,6.3,53,0.00,,---,0.79,VWS V14.00,2013-04-13 02:34:00,
2013-04-12 22:40:00,63.1,45.8,28.70,West,270,1.3,6.3,53,0.00,,---,0.79,VWS V14.00,2013-04-13 02:40:00,
2013-04-12 22:46:00,63.0,47.0,28.70,NW,315,1.6,6.3,56,0.00,,---,0.79,VWS V14.00,2013-04-13 02:46:00,
2013-04-12 22:52:00,62.8,46.9,28.70,WNW,292,3.6,6.3,56,0.00,,---,0.79,VWS V14.00,2013-04-13 02:52:00,
2013-04-12 22:58:00,62.6,46.7,28.70,SE,135,0.0,6.3,56,0.00,,---,0.79,VWS V14.00,2013-04-13 02:58:00,
2013-04-12 23:04:00,62.4,46.5,28.70,West,270,0.0,1.3,56,0.00,,---,0.79,VWS V14.00,2013-04-13 03:04:00,
2013-04-12 23:10:00,62.2,46.4,28.70,West,270,0.0,1.3,56,0.00,,---,0.79,VWS V14.00,2013-04-13 03:10:00,
2013-04-12 23:16:00,62.1,46.2,28.70,West,270,0.0,1.3,56,0.00,,---,0.79,VWS V14.00,2013-04-13 03:16:00,
2013-04-12 23:22:00,61.9,46.0,28.70,West,270,0.0,1.3,56,0.00,,---,0.79,VWS V14.00,2013-04-13 03:22:00,
2013-04-12 23:28:00,61.7,45.9,28.70,West,270,0.0,1.3,56,0.00,,---,0.79,VWS V14.00,2013-04-13 03:28:00,
2013-04-12 23:34:00,61.3,45.5,28.70,West,270,0.0,1.3,56,0.00,,---,0.79,VWS V14.00,2013-04-13 03:34:00,
2013-04-12 23:40:00,61.0,45.2,28.70,West,270,0.0,1.3,56,0.00,,---,0.79,VWS V14.00,2013-04-13 03:40:00,
2013-04-12 23:46:00,60.6,46.2,28.70,West,270,2.2,2.2,59,0.00,,---,0.79,VWS V14.00,2013-04-13 03:46:00,
2013-04-12 23:52:00,60.3,45.9,28.70,NW,315,1.1,2.2,59,0.00,,---,0.79,VWS V14.00,2013-04-13 03:52:00,
2013-04-12 23:58:00,59.7,45.4,28.70,North,0,0.0,2.2,59,0.00,,---,0.79,VWS V14.00,2013-04-13 03:58:00,